createdAt,value
2023-05-11T00:01:17.656Z,3.88
2023-05-11T00:05:21.699Z,3.95
2023-05-11T00:09:24.392Z,4.47
2023-05-11T00:13:27.303Z,3.75
2023-05-11T00:17:29.967Z,4.00
2023-05-11T00:21:34.138Z,3.28
2023-05-11T00:25:36.775Z,3.03
2023-05-11T00:29:39.471Z,3.95
2023-05-11T00:33:42.097Z,3.40
2023-05-11T00:37:46.065Z,3.97
2023-05-11T00:41:48.703Z,5.70
2023-05-11T00:45:52.447Z,2.88
2023-05-11T00:49:55.209Z,3.40
2023-05-11T00:53:59.537Z,3.35
2023-05-11T00:58:05.565Z,3.00
2023-05-11T01:02:08.479Z,3.67
2023-05-11T01:06:17.045Z,3.97
2023-05-11T01:10:27.931Z,3.78
2023-05-11T01:14:55.742Z,3.90
2023-05-11T01:19:04.209Z,4.75
2023-05-11T01:23:44.638Z,3.53
2023-05-11T01:28:14.133Z,4.45
2023-05-11T01:32:21.034Z,3.83
2023-05-11T01:36:28.466Z,4.18
2023-05-11T01:40:35.308Z,7.15
2023-05-11T01:44:43.352Z,4.88
2023-05-11T01:48:50.513Z,3.97
2023-05-11T01:52:54.058Z,5.45
2023-05-11T01:56:58.199Z,4.40
2023-05-11T02:01:03.235Z,5.10
2023-05-11T02:05:09.277Z,6.30
2023-05-11T02:09:14.213Z,5.63
2023-05-11T02:13:20.020Z,6.97
2023-05-11T02:17:24.547Z,4.75
2023-05-11T02:21:29.420Z,4.38
2023-05-11T02:25:32.761Z,5.30
2023-05-11T02:29:35.528Z,6.15
2023-05-11T02:33:44.527Z,4.68
2023-05-11T02:37:50.610Z,6.00
2023-05-11T02:41:59.319Z,6.95
2023-05-11T02:46:05.979Z,4.70
2023-05-11T02:50:10.491Z,4.00
2023-05-11T02:54:17.411Z,4.35
2023-05-11T02:58:20.485Z,6.03
2023-05-11T03:02:23.652Z,4.55
2023-05-11T03:06:27.415Z,4.28
2023-05-11T03:10:31.657Z,4.10
2023-05-11T03:14:36.072Z,5.95
2023-05-11T03:18:39.942Z,4.53
2023-05-11T03:22:43.454Z,3.78
2023-05-11T03:26:48.813Z,5.03
2023-05-11T03:30:54.126Z,7.30
2023-05-11T03:34:56.818Z,4.30
2023-05-11T03:39:00.505Z,4.55
2023-05-11T03:43:06.247Z,4.05
2023-05-11T03:47:10.175Z,5.05
2023-05-11T03:51:13.099Z,4.05
2023-05-11T03:55:16.183Z,4.53
2023-05-11T03:59:20.375Z,4.15
2023-05-11T04:03:23.254Z,3.45
2023-05-11T04:07:26.024Z,2.53
2023-05-11T04:11:30.416Z,2.72
2023-05-11T04:15:35.391Z,3.97
2023-05-11T04:19:38.057Z,2.72
2023-05-11T04:23:40.905Z,2.08
2023-05-11T04:27:43.535Z,3.67
2023-05-11T04:31:47.602Z,3.13
2023-05-11T04:35:51.898Z,2.75
2023-05-11T04:39:54.542Z,2.63
2023-05-11T04:43:57.163Z,3.30
2023-05-11T04:48:01.129Z,5.28
2023-05-11T04:52:03.721Z,2.35
2023-05-11T04:56:07.377Z,2.35
2023-05-11T05:00:11.130Z,2.97
2023-05-11T05:04:17.536Z,2.65
2023-05-11T05:08:21.545Z,2.50
2023-05-11T05:12:24.161Z,3.55
2023-05-11T05:16:27.452Z,3.78
2023-05-11T05:20:31.845Z,2.95
2023-05-11T05:24:34.653Z,2.35
2023-05-11T05:28:37.277Z,3.17
2023-05-11T05:32:39.942Z,3.47
2023-05-11T05:36:44.052Z,3.38
2023-05-11T05:40:46.793Z,3.40
2023-05-11T05:44:49.441Z,2.38
2023-05-11T05:48:52.387Z,2.85
2023-05-11T05:52:56.390Z,4.03
2023-05-11T05:56:59.060Z,3.50
2023-05-11T06:01:02.347Z,3.70
2023-05-11T06:05:05.469Z,2.45
2023-05-11T06:09:09.519Z,2.55
2023-05-11T06:13:12.115Z,2.67
2023-05-11T06:17:14.767Z,3.83
2023-05-11T06:21:17.382Z,2.83
2023-05-11T06:25:22.340Z,2.53
2023-05-11T06:29:25.363Z,3.85
2023-05-11T06:33:27.997Z,3.08
2023-05-11T06:37:30.724Z,3.47
2023-05-11T06:41:34.687Z,2.53
2023-05-11T06:45:37.597Z,3.15
2023-05-11T06:49:40.337Z,3.70
2023-05-11T06:53:42.963Z,2.63
2023-05-11T06:57:46.907Z,2.75
2023-05-11T07:01:50.333Z,1.98
2023-05-11T07:05:52.915Z,5.95
2023-05-11T07:09:55.586Z,3.17
2023-05-11T07:13:59.646Z,3.33
2023-05-11T07:18:02.329Z,3.15
2023-05-11T07:22:06.327Z,2.50
2023-05-11T07:26:09.471Z,2.55
2023-05-11T07:30:14.064Z,2.63
2023-05-11T07:34:16.706Z,3.40
2023-05-11T07:38:19.343Z,2.47
2023-05-11T07:42:21.970Z,2.15
2023-05-11T07:46:25.955Z,1.83
2023-05-11T07:50:28.653Z,2.63
2023-05-11T07:54:31.337Z,2.13
2023-05-11T07:58:34.094Z,1.60
2023-05-11T08:02:38.310Z,2.03
2023-05-11T08:06:41.151Z,2.08
2023-05-11T08:10:43.934Z,1.98
2023-05-11T08:14:46.740Z,3.10
2023-05-11T08:18:50.903Z,1.92
2023-05-11T08:22:53.697Z,1.65
2023-05-11T08:26:57.352Z,1.30
2023-05-11T08:31:00.499Z,2.47
2023-05-11T08:35:05.448Z,1.42
2023-05-11T08:39:08.273Z,1.67
2023-05-11T08:43:11.637Z,1.42
2023-05-11T08:47:21.784Z,1.48
2023-05-11T08:51:28.345Z,1.90
2023-05-11T08:55:33.267Z,1.60
2023-05-11T08:59:36.136Z,2.22
2023-05-11T09:03:41.095Z,1.90
2023-05-11T09:07:47.220Z,1.20
2023-05-11T09:15:53.797Z,1.05
2023-05-11T09:20:01.493Z,0.80
2023-05-11T09:24:06.209Z,0.57
2023-05-11T09:28:15.829Z,2.40
2023-05-11T09:32:18.675Z,1.25
2023-05-11T09:36:24.485Z,1.38
2023-05-11T09:40:34.288Z,0.88
2023-05-11T09:44:38.264Z,0.85
2023-05-11T09:48:40.878Z,3.28
2023-05-11T09:52:51.651Z,2.30
2023-05-11T09:56:58.281Z,1.08
2023-05-11T10:01:01.083Z,1.02
2023-05-11T10:05:12.596Z,1.42
2023-05-11T10:09:17.443Z,0.75
2023-05-11T10:13:22.311Z,0.77
2023-05-11T10:17:26.246Z,0.57
2023-05-11T10:21:29.153Z,1.35
2023-05-11T10:25:31.946Z,2.30
2023-05-11T10:29:38.156Z,1.35
2023-05-11T10:33:43.244Z,2.92
2023-05-11T10:37:47.527Z,1.20
2023-05-11T10:42:05.964Z,1.25
2023-05-11T10:46:24.258Z,0.75
2023-05-11T10:51:03.228Z,1.58
2023-05-11T10:55:15.341Z,0.80
2023-05-11T10:59:39.107Z,1.48
2023-05-11T11:03:43.267Z,0.88
2023-05-11T11:08:03.742Z,0.70
2023-05-11T11:12:10.647Z,1.23
2023-05-11T11:16:16.371Z,1.17
2023-05-11T11:20:49.685Z,0.80
2023-05-11T11:24:52.301Z,1.35
2023-05-11T11:29:14.746Z,2.33
2023-05-11T11:33:35.550Z,1.25
2023-05-11T11:38:03.670Z,1.63
2023-05-11T11:42:08.165Z,0.75
2023-05-11T11:46:10.975Z,0.82
2023-05-11T11:50:16.404Z,0.90
2023-05-11T11:54:38.302Z,0.73
2023-05-11T11:59:00.372Z,0.65
2023-05-11T12:03:07.296Z,0.77
2023-05-11T12:07:11.351Z,0.82
2023-05-11T12:11:18.795Z,0.80
2023-05-11T12:15:29.494Z,0.73
2023-05-11T12:19:33.163Z,1.00
2023-05-11T12:23:36.187Z,1.10
2023-05-11T12:27:51.223Z,1.35
2023-05-11T12:31:54.135Z,0.70
2023-05-11T12:35:58.052Z,0.90
2023-05-11T12:40:04.335Z,1.02
2023-05-11T12:44:08.385Z,1.55
2023-05-11T12:48:12.252Z,1.20
2023-05-11T12:52:15.175Z,1.73
2023-05-11T12:56:17.858Z,4.15
2023-05-11T13:00:27.839Z,1.00
2023-05-11T13:04:30.943Z,0.52
2023-05-11T13:08:33.631Z,0.50
2023-05-11T13:12:36.242Z,0.43
2023-05-11T13:16:40.181Z,1.35
2023-05-11T13:20:43.955Z,1.05
2023-05-11T13:24:46.572Z,0.65
2023-05-11T13:29:01.852Z,0.60
2023-05-11T13:33:13.270Z,3.28
2023-05-11T13:37:16.036Z,0.40
2023-05-11T13:41:19.140Z,0.50
2023-05-11T13:45:21.725Z,0.52
2023-05-11T13:49:26.128Z,0.50
2023-05-11T13:53:29.130Z,0.45
2023-05-11T13:57:31.774Z,0.55
2023-05-11T14:01:34.520Z,1.17
2023-05-11T14:05:39.435Z,1.48
2023-05-11T14:09:43.697Z,0.55
2023-05-11T14:13:46.420Z,0.70
2023-05-11T14:17:50.202Z,0.73
2023-05-11T14:21:54.197Z,2.83
2023-05-11T14:25:56.820Z,1.83
2023-05-11T14:29:59.428Z,2.85
2023-05-11T14:34:02.030Z,0.50
2023-05-11T14:38:06.004Z,0.73
2023-05-11T14:42:09.212Z,0.68
2023-05-11T14:46:12.025Z,0.32
2023-05-11T14:50:14.672Z,1.48
2023-05-11T14:54:18.609Z,0.77
2023-05-11T14:58:21.238Z,0.60
2023-05-11T15:02:25.910Z,1.60
2023-05-11T15:06:28.865Z,0.52
2023-05-11T15:10:32.988Z,1.80
2023-05-11T15:14:35.666Z,1.23
2023-05-11T15:18:38.277Z,1.40
2023-05-11T15:22:42.101Z,0.43
2023-05-11T15:26:46.094Z,0.90
2023-05-11T15:30:48.884Z,0.50
2023-05-11T15:34:59.161Z,0.40
2023-05-11T15:39:03.095Z,0.88
2023-05-11T15:43:07.053Z,0.88
2023-05-11T15:47:09.933Z,1.02
2023-05-11T15:51:13.113Z,1.45
2023-05-11T15:55:16.109Z,2.15
2023-05-11T15:59:20.601Z,1.98
2023-05-11T16:03:23.379Z,1.33
2023-05-11T16:07:27.144Z,1.23
2023-05-11T16:11:29.768Z,1.65
2023-05-11T16:15:33.807Z,1.20
2023-05-11T16:19:37.487Z,0.90
2023-05-11T16:23:40.103Z,1.42
2023-05-11T16:27:42.873Z,1.25
2023-05-11T16:31:46.916Z,0.90
2023-05-11T16:35:49.592Z,1.83
2023-05-11T16:39:52.249Z,1.08
2023-05-11T16:43:55.158Z,1.45
2023-05-11T16:47:59.181Z,2.08
2023-05-11T16:52:01.870Z,1.33
2023-05-11T16:56:05.067Z,1.58
2023-05-11T17:00:10.040Z,1.92
2023-05-11T17:04:14.291Z,2.97
2023-05-11T17:08:17.097Z,2.78
2023-05-11T17:12:20.046Z,2.33
2023-05-11T17:16:23.053Z,1.45
2023-05-11T17:20:27.152Z,2.35
2023-05-11T17:24:29.858Z,2.05
2023-05-11T17:28:32.612Z,1.52
2023-05-11T17:32:35.504Z,1.77
2023-05-11T17:36:40.124Z,2.10
2023-05-11T17:40:43.051Z,6.45
2023-05-11T17:44:45.655Z,4.00
2023-05-11T17:48:48.512Z,1.95
2023-05-11T17:52:52.504Z,3.15
2023-05-11T17:56:55.161Z,3.53
2023-05-11T18:00:57.809Z,1.73
2023-05-11T18:05:01.987Z,1.88
2023-05-11T18:09:06.037Z,2.55
2023-05-11T18:13:08.838Z,2.08
2023-05-11T18:17:11.528Z,2.40
2023-05-11T18:21:14.657Z,2.50
2023-05-11T18:25:19.038Z,1.65
2023-05-11T18:29:22.200Z,3.15
2023-05-11T18:33:24.885Z,2.55
2023-05-11T18:37:27.526Z,2.67
2023-05-11T18:41:31.521Z,3.92
2023-05-11T18:45:35.015Z,3.03
2023-05-11T18:49:38.950Z,3.50
2023-05-11T18:53:41.623Z,3.80
2023-05-11T18:57:46.160Z,2.65
2023-05-11T19:01:48.974Z,2.55
2023-05-11T19:05:52.149Z,2.22
2023-05-11T19:09:54.763Z,2.45
2023-05-11T19:13:58.700Z,2.33
2023-05-11T19:18:01.348Z,2.60
2023-05-11T19:22:04.500Z,3.00
2023-05-11T19:26:08.205Z,3.70
2023-05-11T19:30:12.547Z,4.30
2023-05-11T19:34:15.229Z,1.98
2023-05-11T19:38:18.489Z,2.85
2023-05-11T19:42:28.623Z,5.07
2023-05-11T19:46:45.730Z,2.78
2023-05-11T19:50:48.614Z,4.30
2023-05-11T19:54:51.696Z,3.33
2023-05-11T19:58:54.389Z,2.97
2023-05-11T20:02:58.750Z,3.53
2023-05-11T20:07:01.440Z,3.17
2023-05-11T20:11:05.049Z,2.17
2023-05-11T20:15:08.934Z,2.83
2023-05-11T20:19:13.143Z,2.75
2023-05-11T20:23:15.811Z,3.95
2023-05-11T20:27:18.715Z,3.17
2023-05-11T20:31:22.678Z,3.00
2023-05-11T20:35:26.951Z,2.95
2023-05-11T20:39:29.935Z,1.95
2023-05-11T20:43:32.835Z,3.35
2023-05-11T20:47:35.497Z,3.88
2023-05-11T20:51:39.515Z,4.00
2023-05-11T20:55:42.118Z,3.10
2023-05-11T21:03:51.326Z,3.83
2023-05-11T21:07:55.758Z,3.20
2023-05-11T21:11:58.446Z,3.13
2023-05-11T21:16:01.047Z,2.60
2023-05-11T21:20:05.088Z,3.10
2023-05-11T21:24:09.932Z,3.92
2023-05-11T21:28:12.505Z,2.80
2023-05-11T21:32:15.109Z,3.47
2023-05-11T21:36:18.245Z,3.30
2023-05-11T21:40:22.429Z,3.17
2023-05-11T21:44:25.191Z,3.00
2023-05-11T21:48:28.501Z,2.60
2023-05-11T21:52:31.103Z,2.80
2023-05-11T21:56:35.161Z,3.13
2023-05-11T22:00:38.024Z,3.67
2023-05-11T22:04:40.725Z,3.08
2023-05-11T22:08:43.290Z,3.20
2023-05-11T22:12:47.359Z,3.55
2023-05-11T22:16:50.118Z,3.50
2023-05-11T22:20:52.754Z,3.28
2023-05-11T22:24:55.353Z,3.35
2023-05-11T22:28:59.285Z,3.58
2023-05-11T22:33:01.927Z,2.88
2023-05-11T22:37:05.200Z,4.32
2023-05-11T22:41:08.028Z,2.97
2023-05-11T22:45:12.664Z,4.85
2023-05-11T22:49:16.141Z,3.63
2023-05-11T22:53:20.909Z,3.83
2023-05-11T22:57:24.175Z,7.28
2023-05-11T23:01:28.268Z,3.50
2023-05-11T23:05:31.683Z,3.70
2023-05-11T23:09:34.680Z,2.92
2023-05-11T23:13:37.407Z,2.55
2023-05-11T23:17:41.515Z,3.42
2023-05-11T23:21:44.571Z,4.43
2023-05-11T23:25:47.456Z,4.53
2023-05-11T23:29:50.578Z,2.50
2023-05-11T23:33:54.574Z,3.03
2023-05-11T23:37:57.392Z,2.55
2023-05-11T23:42:00.501Z,3.75
2023-05-11T23:46:03.850Z,3.00
2023-05-11T23:50:09.732Z,3.83
2023-05-11T23:54:12.628Z,3.58
2023-05-11T23:58:15.280Z,4.95
